sensor_id;sensor_type;location;lat;lon;timestamp;pressure;altitude;pressure_sealevel;temperature;humidity
38688;BME280;24444;53.216;-6.664;2022-11-15T00:00:04;97925.74;;;5.99;100.00
38688;BME280;24444;53.216;-6.664;2022-11-15T00:02:32;97926.33;;;6.12;100.00
38688;BME280;24444;53.216;-6.664;2022-11-15T00:04:59;97927.43;;;5.76;100.00
38688;BME280;24444;53.216;-6.664;2022-11-15T00:07:27;97929.15;;;5.92;100.00
38688;BME280;24444;53.216;-6.664;2022-11-15T00:09:55;97917.35;;;5.86;100.00
38688;BME280;24444;53.216;-6.664;2022-11-15T00:12:22;97916.51;;;5.86;100.00
38688;BME280;24444;53.216;-6.664;2022-11-15T00:14:50;97903.00;;;6.00;100.00
38688;BME280;24444;53.216;-6.664;2022-11-15T00:17:17;97906.31;;;5.78;100.00
38688;BME280;24444;53.216;-6.664;2022-11-15T00:19:45;97902.76;;;5.96;100.00
38688;BME280;24444;53.216;-6.664;2022-11-15T00:22:13;97893.04;;;6.33;100.00
38688;BME280;24444;53.216;-6.664;2022-11-15T00:24:40;97897.48;;;6.11;100.00
38688;BME280;24444;53.216;-6.664;2022-11-15T00:27:08;97890.76;;;5.82;100.00
38688;BME280;24444;53.216;-6.664;2022-11-15T00:29:36;97879.13;;;6.16;100.00
38688;BME280;24444;53.216;-6.664;2022-11-15T00:32:03;97870.77;;;6.13;100.00
38688;BME280;24444;53.216;-6.664;2022-11-15T00:34:31;97880.83;;;6.16;100.00
38688;BME280;24444;53.216;-6.664;2022-11-15T00:36:58;97875.47;;;6.17;100.00
38688;BME280;24444;53.216;-6.664;2022-11-15T00:39:26;97875.33;;;5.84;100.00
38688;BME280;24444;53.216;-6.664;2022-11-15T00:41:54;97879.80;;;6.15;100.00
38688;BME280;24444;53.216;-6.664;2022-11-15T00:44:21;97857.21;;;6.03;100.00
38688;BME280;24444;53.216;-6.664;2022-11-15T00:46:49;97864.95;;;6.49;100.00
38688;BME280;24444;53.216;-6.664;2022-11-15T00:49:17;97868.76;;;6.33;100.00
38688;BME280;24444;53.216;-6.664;2022-11-15T00:51:43;97864.65;;;6.02;100.00
38688;BME280;24444;53.216;-6.664;2022-11-15T00:54:10;97857.74;;;6.05;100.00
38688;BME280;24444;53.216;-6.664;2022-11-15T00:56:38;97854.69;;;5.82;100.00
38688;BME280;24444;53.216;-6.664;2022-11-15T00:59:05;97855.95;;;5.93;100.00
38688;BME280;24444;53.216;-6.664;2022-11-15T01:04:44;97847.29;;;5.63;100.00
38688;BME280;24444;53.216;-6.664;2022-11-15T01:07:12;97849.95;;;5.59;100.00
38688;BME280;24444;53.216;-6.664;2022-11-15T01:09:40;97846.05;;;5.85;100.00
38688;BME280;24444;53.216;-6.664;2022-11-15T01:12:07;97843.04;;;5.43;100.00
38688;BME280;24444;53.216;-6.664;2022-11-15T01:14:35;97844.75;;;5.82;100.00
38688;BME280;24444;53.216;-6.664;2022-11-15T01:17:03;97844.62;;;5.75;100.00
38688;BME280;24444;53.216;-6.664;2022-11-15T01:19:30;97851.52;;;5.81;100.00
38688;BME280;24444;53.216;-6.664;2022-11-15T01:21:58;97911.39;;;5.56;100.00
38688;BME280;24444;53.216;-6.664;2022-11-15T01:24:25;97911.45;;;5.11;100.00
38688;BME280;24444;53.216;-6.664;2022-11-15T01:26:53;97920.92;;;4.23;100.00
38688;BME280;24444;53.216;-6.664;2022-11-15T01:29:21;97941.72;;;3.62;100.00
38688;BME280;24444;53.216;-6.664;2022-11-15T01:31:48;97946.28;;;3.98;100.00
38688;BME280;24444;53.216;-6.664;2022-11-15T01:34:16;97948.35;;;3.76;100.00
38688;BME280;24444;53.216;-6.664;2022-11-15T01:36:44;97961.32;;;4.15;100.00
38688;BME280;24444;53.216;-6.664;2022-11-15T01:39:11;97960.40;;;4.57;100.00
38688;BME280;24444;53.216;-6.664;2022-11-15T01:41:37;97961.15;;;4.34;100.00
38688;BME280;24444;53.216;-6.664;2022-11-15T01:44:40;97961.87;;;4.17;100.00
38688;BME280;24444;53.216;-6.664;2022-11-15T01:47:11;97971.61;;;3.88;100.00
38688;BME280;24444;53.216;-6.664;2022-11-15T01:49:42;97975.58;;;3.72;100.00
38688;BME280;24444;53.216;-6.664;2022-11-15T01:52:16;97965.08;;;3.07;100.00
38688;BME280;24444;53.216;-6.664;2022-11-15T01:54:44;97969.04;;;3.73;100.00
38688;BME280;24444;53.216;-6.664;2022-11-15T01:57:13;97968.96;;;3.71;100.00
38688;BME280;24444;53.216;-6.664;2022-11-15T01:59:43;97969.95;;;3.38;100.00
38688;BME280;24444;53.216;-6.664;2022-11-15T02:02:12;97972.42;;;3.53;100.00
38688;BME280;24444;53.216;-6.664;2022-11-15T02:04:41;97970.95;;;3.66;100.00
38688;BME280;24444;53.216;-6.664;2022-11-15T02:07:10;97979.42;;;3.54;100.00
38688;BME280;24444;53.216;-6.664;2022-11-15T02:09:39;97977.97;;;3.49;100.00
38688;BME280;24444;53.216;-6.664;2022-11-15T02:12:09;97981.42;;;3.33;100.00
38688;BME280;24444;53.216;-6.664;2022-11-15T02:14:38;97975.74;;;3.90;100.00
38688;BME280;24444;53.216;-6.664;2022-11-15T02:17:17;97978.22;;;3.90;100.00
38688;BME280;24444;53.216;-6.664;2022-11-15T02:20:13;97977.26;;;3.20;100.00
38688;BME280;24444;53.216;-6.664;2022-11-15T02:23:04;97983.47;;;3.98;100.00
38688;BME280;24444;53.216;-6.664;2022-11-15T02:25:44;97989.79;;;3.94;100.00
38688;BME280;24444;53.216;-6.664;2022-11-15T02:28:44;97989.99;;;3.70;100.00
38688;BME280;24444;53.216;-6.664;2022-11-15T02:31:18;97992.70;;;3.78;100.00
38688;BME280;24444;53.216;-6.664;2022-11-15T02:33:54;97997.35;;;3.45;100.00
38688;BME280;24444;53.216;-6.664;2022-11-15T02:36:34;97997.65;;;3.12;100.00
38688;BME280;24444;53.216;-6.664;2022-11-15T02:39:09;98002.24;;;4.05;100.00
38688;BME280;24444;53.216;-6.664;2022-11-15T02:41:41;98009.25;;;3.61;100.00
38688;BME280;24444;53.216;-6.664;2022-11-15T02:44:17;98017.94;;;3.55;100.00
38688;BME280;24444;53.216;-6.664;2022-11-15T02:46:51;98025.37;;;2.87;100.00
38688;BME280;24444;53.216;-6.664;2022-11-15T02:49:20;98026.00;;;2.93;100.00
38688;BME280;24444;53.216;-6.664;2022-11-15T02:51:49;98020.26;;;3.47;100.00
38688;BME280;24444;53.216;-6.664;2022-11-15T02:54:21;98019.22;;;3.65;100.00
38688;BME280;24444;53.216;-6.664;2022-11-15T02:56:50;98014.21;;;3.09;100.00
38688;BME280;24444;53.216;-6.664;2022-11-15T02:59:47;98020.43;;;3.27;100.00
38688;BME280;24444;53.216;-6.664;2022-11-15T03:02:31;98030.58;;;3.08;100.00
38688;BME280;24444;53.216;-6.664;2022-11-15T03:05:07;98030.22;;;3.07;100.00
38688;BME280;24444;53.216;-6.664;2022-11-15T03:07:46;98026.74;;;3.28;100.00
38688;BME280;24444;53.216;-6.664;2022-11-15T03:10:22;98029.75;;;2.95;100.00
38688;BME280;24444;53.216;-6.664;2022-11-15T03:12:56;98024.78;;;3.53;100.00
38688;BME280;24444;53.216;-6.664;2022-11-15T03:15:29;98016.10;;;3.03;100.00
38688;BME280;24444;53.216;-6.664;2022-11-15T03:18:01;98012.07;;;3.21;100.00
38688;BME280;24444;53.216;-6.664;2022-11-15T03:20:29;98012.74;;;3.61;100.00
38688;BME280;24444;53.216;-6.664;2022-11-15T03:23:01;98015.10;;;3.07;100.00
38688;BME280;24444;53.216;-6.664;2022-11-15T03:25:32;98025.13;;;2.92;100.00
38688;BME280;24444;53.216;-6.664;2022-11-15T03:28:04;98028.82;;;2.63;100.00
38688;BME280;24444;53.216;-6.664;2022-11-15T03:30:34;98031.30;;;2.88;100.00
38688;BME280;24444;53.216;-6.664;2022-11-15T03:33:04;98034.20;;;2.59;100.00
38688;BME280;24444;53.216;-6.664;2022-11-15T03:35:35;98032.35;;;3.13;100.00
38688;BME280;24444;53.216;-6.664;2022-11-15T03:38:09;98031.38;;;2.50;100.00
38688;BME280;24444;53.216;-6.664;2022-11-15T03:40:41;98039.04;;;3.08;100.00
38688;BME280;24444;53.216;-6.664;2022-11-15T03:43:14;98042.36;;;2.86;100.00
38688;BME280;24444;53.216;-6.664;2022-11-15T03:45:46;98037.85;;;2.95;100.00
38688;BME280;24444;53.216;-6.664;2022-11-15T03:48:20;98032.40;;;2.57;100.00
38688;BME280;24444;53.216;-6.664;2022-11-15T03:50:48;98033.33;;;2.07;100.00
38688;BME280;24444;53.216;-6.664;2022-11-15T03:53:17;98032.30;;;2.55;100.00
38688;BME280;24444;53.216;-6.664;2022-11-15T03:55:45;98026.06;;;2.31;100.00
38688;BME280;24444;53.216;-6.664;2022-11-15T03:58:12;98025.21;;;2.07;100.00
38688;BME280;24444;53.216;-6.664;2022-11-15T04:00:39;98027.48;;;2.56;100.00
38688;BME280;24444;53.216;-6.664;2022-11-15T04:03:07;98028.99;;;1.94;100.00
38688;BME280;24444;53.216;-6.664;2022-11-15T04:05:34;98037.11;;;2.43;100.00
38688;BME280;24444;53.216;-6.664;2022-11-15T04:08:01;98040.43;;;2.55;100.00
38688;BME280;24444;53.216;-6.664;2022-11-15T04:10:29;98040.33;;;2.05;100.00
38688;BME280;24444;53.216;-6.664;2022-11-15T04:12:56;98034.36;;;2.33;100.00
38688;BME280;24444;53.216;-6.664;2022-11-15T04:15:23;98028.17;;;2.13;100.00
38688;BME280;24444;53.216;-6.664;2022-11-15T04:17:53;98025.78;;;1.65;100.00
38688;BME280;24444;53.216;-6.664;2022-11-15T04:20:22;98031.89;;;1.51;100.00
38688;BME280;24444;53.216;-6.664;2022-11-15T04:22:52;98026.89;;;1.89;100.00
38688;BME280;24444;53.216;-6.664;2022-11-15T04:25:19;98024.15;;;2.16;100.00
38688;BME280;24444;53.216;-6.664;2022-11-15T04:27:46;98028.01;;;2.19;100.00
38688;BME280;24444;53.216;-6.664;2022-11-15T04:30:14;98027.97;;;2.14;100.00
38688;BME280;24444;53.216;-6.664;2022-11-15T04:32:42;98017.87;;;2.19;100.00
38688;BME280;24444;53.216;-6.664;2022-11-15T04:35:09;98021.05;;;2.18;100.00
38688;BME280;24444;53.216;-6.664;2022-11-15T04:37:37;98010.30;;;1.49;100.00
38688;BME280;24444;53.216;-6.664;2022-11-15T04:40:04;98011.72;;;1.79;100.00
38688;BME280;24444;53.216;-6.664;2022-11-15T04:42:32;98015.27;;;1.61;100.00
38688;BME280;24444;53.216;-6.664;2022-11-15T04:44:59;98008.24;;;1.98;100.00
38688;BME280;24444;53.216;-6.664;2022-11-15T04:47:26;97998.10;;;1.89;100.00
38688;BME280;24444;53.216;-6.664;2022-11-15T04:49:53;97985.19;;;1.49;100.00
38688;BME280;24444;53.216;-6.664;2022-11-15T04:52:19;97987.81;;;1.49;100.00
38688;BME280;24444;53.216;-6.664;2022-11-15T04:54:46;97998.34;;;1.63;100.00
38688;BME280;24444;53.216;-6.664;2022-11-15T04:57:14;97997.00;;;1.63;100.00
38688;BME280;24444;53.216;-6.664;2022-11-15T04:59:41;97995.38;;;1.66;100.00
38688;BME280;24444;53.216;-6.664;2022-11-15T05:02:08;98002.73;;;1.04;100.00
38688;BME280;24444;53.216;-6.664;2022-11-15T05:04:35;97999.33;;;1.48;100.00
38688;BME280;24444;53.216;-6.664;2022-11-15T05:07:02;98008.36;;;0.97;100.00
38688;BME280;24444;53.216;-6.664;2022-11-15T05:09:30;98020.45;;;1.01;100.00
38688;BME280;24444;53.216;-6.664;2022-11-15T05:11:57;98024.99;;;1.05;100.00
38688;BME280;24444;53.216;-6.664;2022-11-15T05:14:24;98030.98;;;1.59;100.00
38688;BME280;24444;53.216;-6.664;2022-11-15T05:16:50;98036.03;;;1.38;100.00
38688;BME280;24444;53.216;-6.664;2022-11-15T05:19:17;98032.75;;;1.46;100.00
38688;BME280;24444;53.216;-6.664;2022-11-15T05:21:44;98029.96;;;1.14;100.00
38688;BME280;24444;53.216;-6.664;2022-11-15T05:24:11;98028.40;;;1.88;100.00
38688;BME280;24444;53.216;-6.664;2022-11-15T05:26:38;98022.14;;;1.51;100.00
38688;BME280;24444;53.216;-6.664;2022-11-15T05:29:05;98036.85;;;1.05;100.00
38688;BME280;24444;53.216;-6.664;2022-11-15T05:31:33;98045.25;;;1.42;100.00
38688;BME280;24444;53.216;-6.664;2022-11-15T05:34:01;98038.53;;;0.78;100.00
38688;BME280;24444;53.216;-6.664;2022-11-15T05:36:34;98035.41;;;1.09;100.00
38688;BME280;24444;53.216;-6.664;2022-11-15T05:39:04;98042.45;;;1.08;100.00
38688;BME280;24444;53.216;-6.664;2022-11-15T05:41:34;98043.57;;;0.67;100.00
38688;BME280;24444;53.216;-6.664;2022-11-15T05:44:03;98044.31;;;0.81;100.00
38688;BME280;24444;53.216;-6.664;2022-11-15T05:46:33;98055.37;;;0.74;100.00
38688;BME280;24444;53.216;-6.664;2022-11-15T05:49:01;98066.74;;;0.76;100.00
38688;BME280;24444;53.216;-6.664;2022-11-15T05:51:29;98061.71;;;0.80;100.00
38688;BME280;24444;53.216;-6.664;2022-11-15T05:53:58;98062.39;;;1.15;100.00
38688;BME280;24444;53.216;-6.664;2022-11-15T05:56:26;98059.51;;;1.10;100.00
38688;BME280;24444;53.216;-6.664;2022-11-15T05:58:54;98053.46;;;0.62;100.00
38688;BME280;24444;53.216;-6.664;2022-11-15T06:01:22;98046.29;;;0.94;100.00
38688;BME280;24444;53.216;-6.664;2022-11-15T06:03:50;98040.99;;;0.76;100.00
38688;BME280;24444;53.216;-6.664;2022-11-15T06:06:17;98042.02;;;1.00;100.00
38688;BME280;24444;53.216;-6.664;2022-11-15T06:08:45;98042.23;;;0.83;100.00
38688;BME280;24444;53.216;-6.664;2022-11-15T06:11:11;98045.25;;;0.84;100.00
38688;BME280;24444;53.216;-6.664;2022-11-15T06:13:39;98056.92;;;0.65;100.00
38688;BME280;24444;53.216;-6.664;2022-11-15T06:16:06;98061.88;;;0.72;100.00
38688;BME280;24444;53.216;-6.664;2022-11-15T06:18:34;98063.31;;;0.70;100.00
38688;BME280;24444;53.216;-6.664;2022-11-15T06:21:02;98074.07;;;0.67;100.00
38688;BME280;24444;53.216;-6.664;2022-11-15T06:23:33;98077.19;;;0.82;100.00
38688;BME280;24444;53.216;-6.664;2022-11-15T06:26:01;98077.58;;;1.46;100.00
38688;BME280;24444;53.216;-6.664;2022-11-15T06:28:29;98079.14;;;0.70;100.00
38688;BME280;24444;53.216;-6.664;2022-11-15T06:31:02;98082.58;;;0.92;100.00
38688;BME280;24444;53.216;-6.664;2022-11-15T06:33:30;98083.52;;;0.80;100.00
38688;BME280;24444;53.216;-6.664;2022-11-15T06:36:00;98088.61;;;1.07;100.00
38688;BME280;24444;53.216;-6.664;2022-11-15T06:38:27;98088.20;;;0.96;100.00
38688;BME280;24444;53.216;-6.664;2022-11-15T06:40:54;98088.19;;;0.99;100.00
38688;BME280;24444;53.216;-6.664;2022-11-15T06:43:21;98090.50;;;0.72;100.00
38688;BME280;24444;53.216;-6.664;2022-11-15T06:45:48;98087.88;;;0.74;100.00
38688;BME280;24444;53.216;-6.664;2022-11-15T06:48:15;98082.48;;;0.57;100.00
38688;BME280;24444;53.216;-6.664;2022-11-15T06:50:42;98084.49;;;0.96;100.00
38688;BME280;24444;53.216;-6.664;2022-11-15T06:53:09;98090.01;;;0.76;100.00
38688;BME280;24444;53.216;-6.664;2022-11-15T06:55:37;98094.53;;;0.66;100.00
38688;BME280;24444;53.216;-6.664;2022-11-15T06:58:05;98101.26;;;0.36;100.00
38688;BME280;24444;53.216;-6.664;2022-11-15T07:00:32;98103.45;;;0.66;100.00
38688;BME280;24444;53.216;-6.664;2022-11-15T07:03:00;98105.61;;;0.92;100.00
38688;BME280;24444;53.216;-6.664;2022-11-15T07:05:28;98109.78;;;0.51;100.00
38688;BME280;24444;53.216;-6.664;2022-11-15T07:07:56;98109.44;;;0.45;100.00
38688;BME280;24444;53.216;-6.664;2022-11-15T07:10:25;98101.93;;;0.18;100.00
38688;BME280;24444;53.216;-6.664;2022-11-15T07:12:52;98097.76;;;0.32;100.00
38688;BME280;24444;53.216;-6.664;2022-11-15T07:15:24;98099.11;;;0.48;100.00
38688;BME280;24444;53.216;-6.664;2022-11-15T07:17:52;98093.55;;;0.59;100.00
38688;BME280;24444;53.216;-6.664;2022-11-15T07:20:20;98086.25;;;0.53;100.00
38688;BME280;24444;53.216;-6.664;2022-11-15T07:22:48;98081.72;;;0.37;100.00
38688;BME280;24444;53.216;-6.664;2022-11-15T07:25:15;98082.26;;;0.44;100.00
38688;BME280;24444;53.216;-6.664;2022-11-15T07:27:43;98082.79;;;0.36;100.00
38688;BME280;24444;53.216;-6.664;2022-11-15T07:30:12;98077.90;;;0.32;100.00
38688;BME280;24444;53.216;-6.664;2022-11-15T07:32:39;98078.25;;;0.40;100.00
38688;BME280;24444;53.216;-6.664;2022-11-15T07:35:07;98080.23;;;0.29;100.00
38688;BME280;24444;53.216;-6.664;2022-11-15T07:37:34;98083.34;;;0.16;100.00
38688;BME280;24444;53.216;-6.664;2022-11-15T07:40:02;98076.07;;;0.50;100.00
38688;BME280;24444;53.216;-6.664;2022-11-15T07:42:31;98079.95;;;0.43;100.00
38688;BME280;24444;53.216;-6.664;2022-11-15T07:44:58;98083.96;;;0.41;100.00
38688;BME280;24444;53.216;-6.664;2022-11-15T07:47:24;98085.33;;;0.17;100.00
38688;BME280;24444;53.216;-6.664;2022-11-15T07:49:52;98090.64;;;0.79;100.00
38688;BME280;24444;53.216;-6.664;2022-11-15T07:52:19;98095.95;;;0.56;100.00
38688;BME280;24444;53.216;-6.664;2022-11-15T07:54:47;98097.46;;;0.38;100.00
38688;BME280;24444;53.216;-6.664;2022-11-15T07:57:14;98096.77;;;0.24;100.00
38688;BME280;24444;53.216;-6.664;2022-11-15T07:59:41;98098.66;;;0.42;100.00
38688;BME280;24444;53.216;-6.664;2022-11-15T08:02:09;98099.51;;;0.01;100.00
38688;BME280;24444;53.216;-6.664;2022-11-15T08:04:36;98099.68;;;-0.07;100.00
38688;BME280;24444;53.216;-6.664;2022-11-15T08:07:03;98099.08;;;-0.09;100.00
38688;BME280;24444;53.216;-6.664;2022-11-15T08:09:30;98098.41;;;-0.39;100.00
38688;BME280;24444;53.216;-6.664;2022-11-15T08:11:57;98093.76;;;-0.35;100.00
38688;BME280;24444;53.216;-6.664;2022-11-15T08:14:24;98093.96;;;-0.33;100.00
38688;BME280;24444;53.216;-6.664;2022-11-15T08:16:51;98097.00;;;-0.08;100.00
38688;BME280;24444;53.216;-6.664;2022-11-15T08:19:18;98097.64;;;-0.28;100.00
38688;BME280;24444;53.216;-6.664;2022-11-15T08:21:46;98093.08;;;0.03;100.00
38688;BME280;24444;53.216;-6.664;2022-11-15T08:24:13;98098.60;;;0.29;100.00
38688;BME280;24444;53.216;-6.664;2022-11-15T08:26:41;98103.39;;;-0.68;100.00
38688;BME280;24444;53.216;-6.664;2022-11-15T08:29:08;98106.74;;;-0.58;100.00
38688;BME280;24444;53.216;-6.664;2022-11-15T08:31:36;98110.71;;;-0.14;100.00
38688;BME280;24444;53.216;-6.664;2022-11-15T08:34:03;98113.35;;;-0.35;100.00
38688;BME280;24444;53.216;-6.664;2022-11-15T08:36:31;98111.23;;;0.11;100.00
38688;BME280;24444;53.216;-6.664;2022-11-15T08:38:59;98111.39;;;0.42;100.00
38688;BME280;24444;53.216;-6.664;2022-11-15T08:41:28;98109.66;;;0.59;100.00
38688;BME280;24444;53.216;-6.664;2022-11-15T08:43:57;98117.31;;;-0.33;100.00
38688;BME280;24444;53.216;-6.664;2022-11-15T08:46:24;98111.95;;;0.28;100.00
38688;BME280;24444;53.216;-6.664;2022-11-15T08:48:51;98111.98;;;0.45;100.00
38688;BME280;24444;53.216;-6.664;2022-11-15T08:51:18;98112.50;;;0.24;100.00
38688;BME280;24444;53.216;-6.664;2022-11-15T08:53:45;98112.54;;;-0.21;100.00
38688;BME280;24444;53.216;-6.664;2022-11-15T08:56:14;98110.65;;;0.14;100.00
38688;BME280;24444;53.216;-6.664;2022-11-15T08:58:42;98111.04;;;0.48;100.00
38688;BME280;24444;53.216;-6.664;2022-11-15T09:01:16;98111.80;;;0.47;100.00
38688;BME280;24444;53.216;-6.664;2022-11-15T09:03:43;98109.58;;;0.63;100.00
38688;BME280;24444;53.216;-6.664;2022-11-15T09:06:10;98109.14;;;0.49;100.00
38688;BME280;24444;53.216;-6.664;2022-11-15T09:08:37;98107.85;;;0.35;100.00
38688;BME280;24444;53.216;-6.664;2022-11-15T09:11:06;98107.80;;;0.84;100.00
38688;BME280;24444;53.216;-6.664;2022-11-15T09:13:33;98108.30;;;0.56;100.00
38688;BME280;24444;53.216;-6.664;2022-11-15T09:16:01;98108.32;;;0.14;100.00
38688;BME280;24444;53.216;-6.664;2022-11-15T09:18:29;98104.75;;;0.23;100.00
38688;BME280;24444;53.216;-6.664;2022-11-15T09:20:57;98100.83;;;0.14;100.00
38688;BME280;24444;53.216;-6.664;2022-11-15T09:23:24;98096.90;;;0.34;100.00
38688;BME280;24444;53.216;-6.664;2022-11-15T09:25:57;98095.23;;;0.14;100.00
38688;BME280;24444;53.216;-6.664;2022-11-15T09:28:24;98099.90;;;0.90;100.00
38688;BME280;24444;53.216;-6.664;2022-11-15T09:30:55;98101.35;;;0.74;100.00
38688;BME280;24444;53.216;-6.664;2022-11-15T09:33:22;98098.30;;;0.55;100.00
38688;BME280;24444;53.216;-6.664;2022-11-15T09:35:49;98093.18;;;0.31;100.00
38688;BME280;24444;53.216;-6.664;2022-11-15T09:38:17;98087.05;;;0.53;100.00
38688;BME280;24444;53.216;-6.664;2022-11-15T09:40:50;98077.96;;;0.53;100.00
38688;BME280;24444;53.216;-6.664;2022-11-15T09:43:28;98070.98;;;0.80;100.00
38688;BME280;24444;53.216;-6.664;2022-11-15T09:46:08;98067.74;;;0.62;100.00
38688;BME280;24444;53.216;-6.664;2022-11-15T09:48:48;98064.77;;;0.79;100.00
38688;BME280;24444;53.216;-6.664;2022-11-15T09:51:24;98066.08;;;1.20;100.00
38688;BME280;24444;53.216;-6.664;2022-11-15T09:54:00;98063.46;;;1.53;100.00
38688;BME280;24444;53.216;-6.664;2022-11-15T09:56:31;98058.58;;;1.66;100.00
38688;BME280;24444;53.216;-6.664;2022-11-15T09:59:08;98057.12;;;1.73;100.00
38688;BME280;24444;53.216;-6.664;2022-11-15T10:01:47;98058.45;;;1.48;100.00
38688;BME280;24444;53.216;-6.664;2022-11-15T10:04:16;98059.94;;;1.27;100.00
38688;BME280;24444;53.216;-6.664;2022-11-15T10:06:51;98060.79;;;1.25;100.00
38688;BME280;24444;53.216;-6.664;2022-11-15T10:09:23;98059.78;;;1.41;100.00
38688;BME280;24444;53.216;-6.664;2022-11-15T10:11:53;98056.52;;;1.44;100.00
38688;BME280;24444;53.216;-6.664;2022-11-15T10:14:23;98057.07;;;1.43;100.00
38688;BME280;24444;53.216;-6.664;2022-11-15T10:17:20;98058.26;;;1.56;100.00
38688;BME280;24444;53.216;-6.664;2022-11-15T10:19:57;98060.86;;;1.25;100.00
38688;BME280;24444;53.216;-6.664;2022-11-15T10:22:30;98061.44;;;1.29;100.00
38688;BME280;24444;53.216;-6.664;2022-11-15T10:25:12;98060.66;;;1.51;100.00
38688;BME280;24444;53.216;-6.664;2022-11-15T10:27:41;98057.88;;;1.83;100.00
38688;BME280;24444;53.216;-6.664;2022-11-15T10:30:13;98055.44;;;1.75;100.00
38688;BME280;24444;53.216;-6.664;2022-11-15T10:32:43;98055.34;;;1.75;100.00
38688;BME280;24444;53.216;-6.664;2022-11-15T10:35:21;98054.44;;;1.60;100.00
38688;BME280;24444;53.216;-6.664;2022-11-15T10:37:50;98048.27;;;1.29;100.00
38688;BME280;24444;53.216;-6.664;2022-11-15T10:40:20;98040.21;;;1.55;100.00
38688;BME280;24444;53.216;-6.664;2022-11-15T10:43:03;98037.40;;;1.55;100.00
38688;BME280;24444;53.216;-6.664;2022-11-15T10:45:33;98033.92;;;2.01;100.00
38688;BME280;24444;53.216;-6.664;2022-11-15T10:48:20;98030.20;;;1.95;100.00
38688;BME280;24444;53.216;-6.664;2022-11-15T10:50:50;98029.59;;;2.49;100.00
38688;BME280;24444;53.216;-6.664;2022-11-15T10:53:23;98028.04;;;3.77;97.71
38688;BME280;24444;53.216;-6.664;2022-11-15T10:55:53;98025.81;;;4.35;91.57
38688;BME280;24444;53.216;-6.664;2022-11-15T10:58:33;98022.41;;;5.06;86.61
38688;BME280;24444;53.216;-6.664;2022-11-15T11:01:10;98018.23;;;4.96;83.93
38688;BME280;24444;53.216;-6.664;2022-11-15T11:03:39;98015.54;;;6.16;79.91
38688;BME280;24444;53.216;-6.664;2022-11-15T11:06:11;98012.70;;;6.59;76.72
38688;BME280;24444;53.216;-6.664;2022-11-15T11:08:39;98009.50;;;6.69;72.43
38688;BME280;24444;53.216;-6.664;2022-11-15T11:11:07;98005.62;;;7.00;70.24
38688;BME280;24444;53.216;-6.664;2022-11-15T11:13:36;98004.29;;;6.11;67.93
38688;BME280;24444;53.216;-6.664;2022-11-15T11:16:20;97996.90;;;7.15;67.35
38688;BME280;24444;53.216;-6.664;2022-11-15T11:18:56;97991.88;;;6.64;64.81
38688;BME280;24444;53.216;-6.664;2022-11-15T11:21:34;97993.97;;;6.91;66.83
38688;BME280;24444;53.216;-6.664;2022-11-15T11:24:10;97987.22;;;7.18;66.93
38688;BME280;24444;53.216;-6.664;2022-11-15T11:26:45;97984.12;;;7.29;63.11
38688;BME280;24444;53.216;-6.664;2022-11-15T11:29:25;97983.49;;;7.39;61.92
38688;BME280;24444;53.216;-6.664;2022-11-15T11:32:01;97978.37;;;7.57;58.76
38688;BME280;24444;53.216;-6.664;2022-11-15T11:34:41;97978.24;;;7.83;58.95
38688;BME280;24444;53.216;-6.664;2022-11-15T11:37:17;97971.08;;;8.04;58.43
38688;BME280;24444;53.216;-6.664;2022-11-15T11:39:55;97968.72;;;8.16;55.60
38688;BME280;24444;53.216;-6.664;2022-11-15T11:42:33;97969.84;;;8.06;55.69
38688;BME280;24444;53.216;-6.664;2022-11-15T11:45:15;97963.61;;;7.44;56.66
38688;BME280;24444;53.216;-6.664;2022-11-15T11:47:47;97960.45;;;7.90;58.19
38688;BME280;24444;53.216;-6.664;2022-11-15T11:50:20;97957.19;;;7.27;59.88
38688;BME280;24444;53.216;-6.664;2022-11-15T11:52:57;97954.58;;;7.55;60.00
38688;BME280;24444;53.216;-6.664;2022-11-15T11:55:28;97954.77;;;7.38;59.35
38688;BME280;24444;53.216;-6.664;2022-11-15T11:58:05;97957.00;;;6.64;56.77
38688;BME280;24444;53.216;-6.664;2022-11-15T12:00:41;97959.05;;;5.64;62.74
38688;BME280;24444;53.216;-6.664;2022-11-15T12:03:14;97960.54;;;5.70;61.47
38688;BME280;24444;53.216;-6.664;2022-11-15T12:05:46;97954.44;;;6.14;59.58
38688;BME280;24444;53.216;-6.664;2022-11-15T12:08:25;97954.54;;;5.56;62.67
38688;BME280;24444;53.216;-6.664;2022-11-15T12:11:01;97949.10;;;5.17;62.92
38688;BME280;24444;53.216;-6.664;2022-11-15T12:13:32;97944.78;;;6.05;62.53
38688;BME280;24444;53.216;-6.664;2022-11-15T12:16:05;97938.78;;;5.48;62.37
38688;BME280;24444;53.216;-6.664;2022-11-15T12:18:35;97939.84;;;6.37;62.84
38688;BME280;24444;53.216;-6.664;2022-11-15T12:21:07;97939.32;;;6.03;60.65
38688;BME280;24444;53.216;-6.664;2022-11-15T12:23:44;97934.91;;;5.75;60.89
38688;BME280;24444;53.216;-6.664;2022-11-15T12:26:18;97928.46;;;5.61;61.42
38688;BME280;24444;53.216;-6.664;2022-11-15T12:28:52;97924.55;;;4.45;63.74
38688;BME280;24444;53.216;-6.664;2022-11-15T12:31:24;97922.33;;;5.43;63.05
38688;BME280;24444;53.216;-6.664;2022-11-15T12:33:56;97918.09;;;6.04;61.19
38688;BME280;24444;53.216;-6.664;2022-11-15T12:36:35;97913.59;;;6.78;58.78
38688;BME280;24444;53.216;-6.664;2022-11-15T12:39:04;97911.08;;;7.52;58.55
38688;BME280;24444;53.216;-6.664;2022-11-15T12:41:33;97908.39;;;6.95;56.45
38688;BME280;24444;53.216;-6.664;2022-11-15T12:44:01;97906.64;;;6.49;55.28
38688;BME280;24444;53.216;-6.664;2022-11-15T12:47:23;97899.56;;;6.22;57.10
38688;BME280;24444;53.216;-6.664;2022-11-15T12:49:51;97896.65;;;6.20;61.33
38688;BME280;24444;53.216;-6.664;2022-11-15T12:52:19;97895.16;;;6.64;57.20
38688;BME280;24444;53.216;-6.664;2022-11-15T12:54:52;97889.24;;;5.53;55.45
38688;BME280;24444;53.216;-6.664;2022-11-15T12:57:53;97887.01;;;5.46;56.58
38688;BME280;24444;53.216;-6.664;2022-11-15T13:00:47;97886.56;;;6.03;58.31
38688;BME280;24444;53.216;-6.664;2022-11-15T13:03:29;97882.39;;;5.40;60.53
38688;BME280;24444;53.216;-6.664;2022-11-15T13:06:02;97879.03;;;5.43;61.00
38688;BME280;24444;53.216;-6.664;2022-11-15T13:08:49;97878.42;;;5.59;59.42
38688;BME280;24444;53.216;-6.664;2022-11-15T13:11:51;97878.14;;;5.41;58.43